Time;durP1;ratioP1;P1;durP2;ratioP2;P2;SDS_P1;SDS_P2;PMS_P1;PMS_P2;Temp;Humidity;BMP_temperature;BMP_pressure;BME280_temperature;BME280_humidity;BME280_pressure;Samples;Min_cycle;Max_cycle;Signal;HPM_P1;HPM_P2
2022/01/30 00:01:15;;;;;;;18.03;3.57;;;6.10;99.90;;;;;;4998481;28;20157;-87
2022/01/30 00:03:54;;;;;;;19.73;4.00;;;6.10;99.90;;;;;;4997608;28;20061;-86
2022/01/30 00:06:20;;;;;;;24.23;3.70;;;5.90;99.90;;;;;;5001578;28;20042;-86
2022/01/30 00:08:45;;;;;;;14.67;3.50;;;6.00;99.90;;;;;;4997639;28;20386;-87
2022/01/30 00:11:32;;;;;;;20.87;3.83;;;5.50;99.90;;;;;;4998035;28;20417;-88
2022/01/30 00:14:06;;;;;;;17.90;3.77;;;6.10;99.90;;;;;;5003777;28;20021;-87
2022/01/30 00:16:41;;;;;;;15.03;3.47;;;5.80;99.90;;;;;;5010131;28;20077;-87
2022/01/30 00:22:23;;;;;;;19.93;3.77;;;6.90;99.90;;;;;;4997842;28;20069;-89
2022/01/30 00:25:14;;;;;;;17.83;3.67;;;6.00;99.90;;;;;;4996960;28;20050;-87
2022/01/30 00:28:12;;;;;;;15.67;3.90;;;5.70;99.90;;;;;;4996589;28;20054;-88
2022/01/30 00:30:47;;;;;;;20.43;3.60;;;5.80;99.90;;;;;;5013890;28;20038;-88
2022/01/30 00:33:12;;;;;;;14.60;3.60;;;5.50;99.90;;;;;;4997223;28;20041;-86
2022/01/30 00:35:51;;;;;;;17.80;3.37;;;6.10;99.90;;;;;;4997307;28;20054;-87
2022/01/30 00:38:23;;;;;;;18.53;4.07;;;5.00;99.90;;;;;;4997701;28;20420;-88
2022/01/30 00:41:01;;;;;;;22.50;3.87;;;5.30;99.90;;;;;;4996888;28;20038;-86
2022/01/30 00:43:27;;;;;;;18.13;3.17;;;7.00;99.90;;;;;;5013744;28;20049;-87
2022/01/30 00:45:52;;;;;;;22.80;3.40;;;5.50;99.90;;;;;;4996427;28;20073;-89
2022/01/30 00:48:33;;;;;;;19.03;3.23;;;6.00;99.90;;;;;;4997487;28;20056;-87
2022/01/30 00:51:18;;;;;;;18.73;3.40;;;5.60;99.90;;;;;;5022605;28;20025;-87
2022/01/30 00:54:35;;;;;;;23.10;3.50;;;5.70;99.90;;;;;;5006331;28;20470;-87
2022/01/30 00:57:00;;;;;;;21.47;4.37;;;5.10;99.90;;;;;;4996917;28;20466;-87
2022/01/30 00:59:26;;;;;;;20.63;3.40;;;5.90;99.90;;;;;;4994939;28;20054;-87
2022/01/30 01:02:04;;;;;;;14.87;2.60;;;5.80;99.90;;;;;;4996965;28;20500;-88
2022/01/30 01:04:35;;;;;;;21.90;3.00;;;5.90;99.90;;;;;;5013776;28;20046;-88
2022/01/30 01:07:19;;;;;;;18.07;3.27;;;5.70;99.90;;;;;;5013906;28;20125;-89
2022/01/30 01:10:09;;;;;;;22.40;5.15;;;5.70;99.90;;;;;;4997330;28;20042;-88
2022/01/30 01:23:48;;;;;;;16.23;3.27;;;5.60;99.90;;;;;;4996400;28;20054;-88
2022/01/30 01:26:15;;;;;;;18.07;3.13;;;5.50;99.90;;;;;;4998357;28;20049;-88
2022/01/30 01:28:42;;;;;;;16.40;2.90;;;5.30;99.90;;;;;;5011715;28;20101;-87
2022/01/30 01:31:08;;;;;;;17.77;3.77;;;5.30;99.90;;;;;;5014806;28;20046;-87
2022/01/30 01:36:03;;;;;;;20.17;3.37;;;5.10;99.90;;;;;;5013369;28;20064;-88
2022/01/30 01:38:28;;;;;;;18.60;2.73;;;5.10;99.90;;;;;;4996584;28;20042;-88
2022/01/30 01:40:55;;;;;;;18.57;3.20;;;5.00;99.90;;;;;;4996560;28;20056;-88
2022/01/30 01:43:24;;;;;;;13.67;3.00;;;5.00;99.90;;;;;;4995362;28;20479;-87
2022/01/30 01:45:53;;;;;;;19.83;3.23;;;5.00;99.90;;;;;;4996533;28;20050;-88
2022/01/30 01:48:19;;;;;;;17.80;3.07;;;5.00;99.90;;;;;;4999211;28;20104;-87
2022/01/30 01:50:54;;;;;;;18.37;3.10;;;5.00;99.90;;;;;;4995084;28;20116;-87
2022/01/30 01:53:24;;;;;;;17.67;3.90;;;5.00;99.90;;;;;;4996429;28;20049;-88
2022/01/30 01:55:50;;;;;;;20.90;3.30;;;5.50;99.90;;;;;;4995757;28;20042;-88
2022/01/30 01:58:29;;;;;;;14.37;3.30;;;4.90;99.90;;;;;;5017919;28;20056;-87
2022/01/30 02:01:04;;;;;;;;;;;;;;;;;;;;;
2022/01/30 02:03:45;;;;;;;17.33;3.00;;;4.30;99.90;;;;;;5019936;28;20046;-86
2022/01/30 02:06:15;;;;;;;16.73;3.53;;;4.80;99.90;;;;;;5007568;28;20042;-88
2022/01/30 02:08:50;;;;;;;19.87;3.30;;;5.00;99.90;;;;;;5013907;28;20080;-89
2022/01/30 02:11:41;;;;;;;15.53;3.70;;;5.10;99.90;;;;;;4994989;28;20077;-87
2022/01/30 02:25:36;;;;;;;15.68;3.13;;;5.90;99.90;;;;;;4995380;28;20449;-88
2022/01/30 02:28:08;;;;;;;24.83;3.90;;;5.40;99.90;;;;;;4996226;28;20045;-87
2022/01/30 02:30:36;;;;;;;19.23;4.27;;;5.40;99.90;;;;;;4995973;28;20050;-88
2022/01/30 02:33:32;;;;;;;20.55;3.70;;;4.70;99.90;;;;;;4993321;28;20054;-88
2022/01/30 02:35:58;;;;;;;18.90;3.43;;;5.90;99.90;;;;;;4996007;28;20041;-88
2022/01/30 02:38:41;;;;;;;21.07;3.33;;;5.30;99.90;;;;;;4995067;28;20439;-88
2022/01/30 02:41:09;;;;;;;18.80;3.33;;;5.20;99.90;;;;;;5012436;28;20056;-88
2022/01/30 02:43:42;;;;;;;21.20;3.83;;;6.40;99.90;;;;;;4997161;28;20038;-88
2022/01/30 02:46:42;;;;;;;20.47;3.50;;;6.30;99.90;;;;;;4993590;28;20050;-88
2022/01/30 02:49:40;;;;;;;22.40;5.33;;;4.90;99.90;;;;;;4995737;28;20132;-88
2022/01/30 02:52:40;;;;;;;18.63;3.27;;;5.20;99.90;;;;;;5011492;28;20046;-89
2022/01/30 02:55:11;;;;;;;17.03;2.97;;;6.10;99.90;;;;;;4998568;28;20057;-88
2022/01/30 02:57:56;;;;;;;18.17;4.43;;;5.30;99.90;;;;;;4998952;28;20092;-88
2022/01/30 03:00:31;;;;;;;20.97;4.03;;;5.40;99.90;;;;;;4998621;28;20599;-87
2022/01/30 03:02:57;;;;;;;20.37;3.67;;;4.80;99.90;;;;;;4997781;28;20048;-88
2022/01/30 03:05:29;;;;;;;20.43;3.63;;;5.00;99.90;;;;;;4999023;28;20046;-88
2022/01/30 03:08:13;;;;;;;18.93;3.63;;;6.00;99.90;;;;;;4996744;28;20050;-86
2022/01/30 03:10:54;;;;;;;22.48;4.20;;;4.60;99.90;;;;;;4996710;28;20282;-88
2022/01/30 03:13:35;;;;;;;19.93;3.10;;;6.00;99.90;;;;;;4998452;28;20508;-89
2022/01/30 03:16:16;;;;;;;18.43;3.37;;;5.30;99.90;;;;;;5005035;28;20056;-89
2022/01/30 03:18:54;;;;;;;21.17;3.70;;;4.60;99.90;;;;;;5008665;28;20105;-88
2022/01/30 03:21:25;;;;;;;20.17;3.63;;;3.90;99.90;;;;;;4998466;28;20493;-88
2022/01/30 03:23:57;;;;;;;21.47;4.03;;;4.60;99.90;;;;;;4999793;28;20103;-89
2022/01/30 03:26:39;;;;;;;17.27;3.57;;;4.60;99.90;;;;;;4999863;28;20045;-89
2022/01/30 03:29:07;;;;;;;17.90;3.53;;;4.40;99.90;;;;;;4998201;28;20053;-89
2022/01/30 03:31:41;;;;;;;20.37;4.13;;;4.50;99.90;;;;;;4999039;28;20049;-88
2022/01/30 03:34:22;;;;;;;20.70;3.20;;;4.40;99.90;;;;;;4999534;28;20054;-90
2022/01/30 03:36:48;;;;;;;19.97;3.80;;;5.20;99.90;;;;;;4998738;28;20124;-89
2022/01/30 03:39:20;;;;;;;23.97;4.73;;;4.30;99.90;;;;;;4998686;28;20133;-89
2022/01/30 03:41:58;;;;;;;22.60;3.83;;;4.60;99.90;;;;;;4998274;28;20461;-89
2022/01/30 03:44:38;;;;;;;18.77;4.17;;;5.60;99.90;;;;;;4998948;28;20038;-89
2022/01/30 03:47:20;;;;;;;22.67;3.57;;;4.50;99.90;;;;;;4999339;28;20050;-89
2022/01/30 03:49:58;;;;;;;26.73;4.10;;;6.00;99.90;;;;;;4998008;28;20108;-89
2022/01/30 03:55:51;;;;;;;24.63;4.17;;;4.60;99.90;;;;;;4946402;29;20051;-90
2022/01/30 03:58:19;;;;;;;23.87;3.80;;;4.40;99.90;;;;;;4940630;29;20113;-89
2022/01/30 04:00:54;;;;;;;23.50;4.07;;;4.90;99.90;;;;;;4940669;29;20051;-89
2022/01/30 04:03:29;;;;;;;21.43;3.47;;;4.40;99.90;;;;;;4939693;29;20047;-88
2022/01/30 04:06:05;;;;;;;24.87;4.47;;;5.10;99.90;;;;;;4941056;29;20051;-89
2022/01/30 04:08:46;;;;;;;20.30;4.03;;;4.80;99.90;;;;;;4940205;28;20047;-88
2022/01/30 04:11:17;;;;;;;19.67;4.33;;;5.10;99.90;;;;;;4939421;29;20590;-89
2022/01/30 04:13:53;;;;;;;24.03;5.17;;;4.60;99.90;;;;;;4940313;29;20043;-89
2022/01/30 04:16:30;;;;;;;23.83;4.17;;;5.00;99.90;;;;;;4940396;29;20055;-89
2022/01/30 04:19:06;;;;;;;22.20;4.33;;;4.10;99.90;;;;;;4940647;29;20070;-87
2022/01/30 04:21:41;;;;;;;25.13;4.33;;;4.90;99.90;;;;;;4939840;29;20046;-87
2022/01/30 04:24:21;;;;;;;17.83;3.70;;;4.90;99.90;;;;;;4939084;29;20047;-89
2022/01/30 04:26:54;;;;;;;19.30;3.63;;;4.50;99.90;;;;;;4940293;29;20055;-91
2022/01/30 04:29:32;;;;;;;22.97;3.97;;;4.00;99.90;;;;;;4950793;28;20049;-89
2022/01/30 04:32:08;;;;;;;23.07;4.97;;;5.10;99.90;;;;;;4945261;29;20512;-87
2022/01/30 04:34:53;;;;;;;29.63;4.53;;;5.10;99.90;;;;;;4939986;29;20491;-90
2022/01/30 05:04:28;;;;;;;27.57;4.73;;;4.90;99.90;;;;;;4975307;28;20049;-89
2022/01/30 05:09:26;;;;;;;34.93;5.87;;;4.90;99.90;;;;;;4978765;28;20085;-89
2022/01/30 05:11:53;;;;;;;26.17;5.10;;;5.90;99.90;;;;;;4975394;28;20133;-89
2022/01/30 05:14:22;;;;;;;20.83;4.93;;;4.90;99.90;;;;;;4973750;28;20130;-87
2022/01/30 05:16:47;;;;;;;31.13;5.23;;;4.80;99.90;;;;;;4973522;28;20414;-86
2022/01/30 05:19:14;;;;;;;24.60;5.10;;;4.80;99.90;;;;;;4974367;28;20055;-88
2022/01/30 05:21:40;;;;;;;23.97;4.30;;;4.80;99.90;;;;;;4973081;28;20077;-87
2022/01/30 05:24:06;;;;;;;25.47;4.83;;;4.80;99.90;;;;;;4974312;28;20055;-87
2022/01/30 05:26:32;;;;;;;27.03;5.73;;;4.70;99.90;;;;;;4973718;28;20047;-87
2022/01/30 05:28:58;;;;;;;31.57;5.97;;;4.70;99.90;;;;;;4973461;28;20100;-87
2022/01/30 05:31:26;;;;;;;23.07;4.40;;;4.70;99.90;;;;;;4990523;28;20042;-87
2022/01/30 05:33:51;;;;;;;25.47;5.40;;;4.70;99.90;;;;;;4973265;28;20198;-87
2022/01/30 05:36:20;;;;;;;31.27;4.77;;;4.60;99.90;;;;;;4974208;28;20137;-87
2022/01/30 05:38:46;;;;;;;31.90;5.53;;;4.60;99.90;;;;;;4973558;28;20050;-87
2022/01/30 05:41:12;;;;;;;28.20;5.13;;;4.60;99.90;;;;;;4973405;28;20042;-87
2022/01/30 05:43:39;;;;;;;30.20;5.20;;;4.70;99.90;;;;;;4984299;28;20145;-88
2022/01/30 05:46:11;;;;;;;24.00;4.13;;;4.70;99.90;;;;;;4973303;28;20193;-89
2022/01/30 05:48:37;;;;;;;23.77;5.43;;;4.70;99.90;;;;;;4989178;28;20574;-89
2022/01/30 05:51:03;;;;;;;34.10;5.10;;;4.60;99.90;;;;;;4973752;28;20137;-88
2022/01/30 05:53:28;;;;;;;31.27;5.83;;;4.60;99.90;;;;;;4972983;28;20094;-88
2022/01/30 05:55:54;;;;;;;31.97;4.97;;;4.70;99.90;;;;;;4972700;28;20082;-89
2022/01/30 05:58:20;;;;;;;24.23;4.87;;;4.70;99.90;;;;;;4973437;28;20050;-89
2022/01/30 06:00:45;;;;;;;23.73;4.77;;;4.60;99.90;;;;;;4973227;28;20053;-88
2022/01/30 06:03:11;;;;;;;21.77;4.57;;;4.60;99.90;;;;;;4972476;28;20055;-89
2022/01/30 06:05:38;;;;;;;25.80;5.17;;;4.60;99.90;;;;;;4973242;28;20046;-88
2022/01/30 06:10:49;;;;;;;20.03;4.33;;;4.60;99.90;;;;;;4943577;28;20113;-88
2022/01/30 06:13:15;;;;;;;32.30;5.57;;;4.60;99.90;;;;;;4974147;28;20035;-88
2022/01/30 06:15:40;;;;;;;27.07;5.30;;;4.50;99.90;;;;;;4973853;28;20054;-88
2022/01/30 06:18:06;;;;;;;28.67;5.20;;;4.50;99.90;;;;;;4977746;28;20145;-88
2022/01/30 06:20:31;;;;;;;29.03;4.90;;;4.50;99.90;;;;;;4981511;28;20054;-88
2022/01/30 06:22:57;;;;;;;25.00;5.43;;;4.60;99.90;;;;;;4973880;28;20077;-89
2022/01/30 06:25:23;;;;;;;29.77;5.33;;;4.50;99.90;;;;;;4972787;28;20054;-88
2022/01/30 06:27:48;;;;;;;32.67;6.70;;;4.60;99.90;;;;;;4972285;28;20077;-88
2022/01/30 06:30:14;;;;;;;26.50;5.13;;;4.70;99.90;;;;;;4971591;28;20043;-88
2022/01/30 06:32:39;;;;;;;31.83;5.73;;;4.60;99.90;;;;;;4973143;28;20415;-87
2022/01/30 06:35:05;;;;;;;26.30;5.57;;;4.60;99.90;;;;;;4973656;28;20403;-87
2022/01/30 06:37:31;;;;;;;33.93;6.03;;;4.70;99.90;;;;;;4972453;28;20212;-87
2022/01/30 06:39:57;;;;;;;26.07;5.53;;;4.80;99.90;;;;;;4972726;28;20491;-88
2022/01/30 06:42:23;;;;;;;28.17;6.30;;;4.80;99.90;;;;;;4973150;28;20043;-88
2022/01/30 06:44:49;;;;;;;35.07;5.90;;;4.90;99.90;;;;;;4971831;28;20051;-88
2022/01/30 06:47:15;;;;;;;33.33;6.20;;;4.90;99.90;;;;;;4973358;28;20138;-88
2022/01/30 06:49:41;;;;;;;29.43;5.33;;;4.90;99.90;;;;;;4972766;28;20096;-89
2022/01/30 06:52:09;;;;;;;28.93;5.67;;;4.90;99.90;;;;;;4972503;28;20051;-88
2022/01/30 06:54:35;;;;;;;29.90;5.17;;;4.90;99.90;;;;;;4977661;28;20031;-88
2022/01/30 06:57:00;;;;;;;27.07;5.20;;;4.90;99.90;;;;;;4985436;28;20101;-88
2022/01/30 06:59:26;;;;;;;33.03;6.07;;;4.90;99.90;;;;;;4972467;28;20491;-88
2022/01/30 07:01:52;;;;;;;26.57;5.87;;;4.90;99.90;;;;;;4973196;28;20089;-89
2022/01/30 07:04:18;;;;;;;28.80;5.90;;;4.90;99.90;;;;;;4973242;28;20050;-89
2022/01/30 07:06:49;;;;;;;31.70;6.00;;;4.80;99.90;;;;;;4973659;28;20065;-91
2022/01/30 07:09:27;;;;;;;29.67;6.33;;;4.80;99.90;;;;;;4974001;28;20063;-91
2022/01/30 07:11:59;;;;;;;30.37;7.03;;;5.00;99.90;;;;;;4973095;28;20046;-91
2022/01/30 07:17:03;;;;;;;27.87;5.60;;;4.60;99.90;;;;;;4955974;28;20074;-93
2022/01/30 07:20:13;;;;;;;33.90;5.90;;;4.50;99.90;;;;;;5435273;23;20017;-91
2022/01/30 07:22:44;;;;;;;29.43;5.67;;;3.90;99.90;;;;;;4996417;28;20053;-95
2022/01/30 07:26:13;;;;;;;27.93;5.53;;;5.20;99.90;;;;;;4998516;28;20073;-95
2022/01/30 07:28:48;;;;;;;31.67;5.40;;;4.90;99.90;;;;;;4920124;29;20063;-95
2022/01/30 07:37:55;;;;;;;32.17;6.80;;;5.30;99.90;;;;;;4980754;28;20062;-96
2022/01/30 07:40:32;;;;;;;33.80;5.32;;;5.00;99.90;;;;;;4976184;28;20471;-93
2022/01/30 07:43:15;;;;;;;27.70;5.20;;;5.60;99.90;;;;;;4986564;23;20043;-93
2022/01/30 07:45:41;;;;;;;34.67;6.30;;;5.10;99.90;;;;;;4977140;28;20047;-92
2022/01/30 07:48:11;;;;;;;34.63;6.17;;;4.70;99.90;;;;;;5055795;23;20050;-90
2022/01/30 07:51:02;;;;;;;29.67;5.40;;;5.70;99.90;;;;;;4973646;28;20082;-91
2022/01/30 07:53:28;;;;;;;26.47;5.97;;;5.20;99.90;;;;;;4975995;28;20058;-91
2022/01/30 07:56:03;;;;;;;32.80;7.17;;;5.00;99.90;;;;;;4978500;28;20047;-94
2022/01/30 07:58:38;;;;;;;26.40;4.90;;;6.90;99.90;;;;;;4976662;28;20054;-94
2022/01/30 08:01:04;;;;;;;30.87;6.47;;;4.20;99.90;;;;;;4977231;28;20122;-93
2022/01/30 08:04:08;;;;;;;30.43;5.80;;;5.10;99.90;;;;;;4977004;28;20076;-95
2022/01/30 08:06:34;;;;;;;31.05;5.45;;;5.50;99.90;;;;;;4981445;28;20632;-89
2022/01/30 08:09:06;;;;;;;32.10;6.17;;;5.50;99.90;;;;;;4992242;28;20046;-90
2022/01/30 08:11:32;;;;;;;27.70;5.37;;;5.30;99.90;;;;;;5026182;23;20072;-90
2022/01/30 08:13:57;;;;;;;38.30;6.33;;;5.30;99.90;;;;;;4963791;28;20530;-89
2022/01/30 08:16:29;;;;;;;30.03;5.43;;;5.20;99.90;;;;;;4959594;28;20043;-88
2022/01/30 08:19:11;;;;;;;33.90;5.33;;;5.20;99.90;;;;;;4959172;29;20079;-96
2022/01/30 08:21:37;;;;;;;31.77;6.07;;;5.20;99.90;;;;;;4957063;29;20558;-92
2022/01/30 08:24:06;;;;;;;31.77;7.17;;;5.10;99.90;;;;;;4957886;29;20039;-92
2022/01/30 08:26:37;;;;;;;26.80;5.97;;;5.30;99.90;;;;;;4961120;29;20039;-93
2022/01/30 08:29:06;;;;;;;27.43;4.63;;;7.20;99.90;;;;;;4956514;29;20047;-88
2022/01/30 08:31:32;;;;;;;33.63;5.93;;;5.20;99.90;;;;;;4955457;29;20047;-93
2022/01/30 08:34:00;;;;;;;33.17;5.93;;;6.40;99.90;;;;;;4948940;29;20054;-91
2022/01/30 08:36:47;;;;;;;26.73;5.67;;;5.30;99.90;;;;;;4957213;29;20036;-94
2022/01/30 08:39:16;;;;;;;25.27;6.07;;;6.70;99.90;;;;;;4964167;29;20058;-95
2022/01/30 08:42:07;;;;;;;28.27;5.53;;;5.10;99.90;;;;;;4959230;29;20036;-96
2022/01/30 08:44:44;;;;;;;30.75;6.18;;;4.60;99.90;;;;;;4967767;28;20086;-96
2022/01/30 08:47:16;;;;;;;28.80;5.27;;;6.30;99.90;;;;;;4975637;28;20047;-96
2022/01/30 08:49:50;;;;;;;27.07;5.17;;;5.30;99.90;;;;;;4959718;29;20036;-96
2022/01/30 08:52:24;;;;;;;;;;;5.40;99.90;;;;;;4968849;23;20039;-96
2022/01/30 08:55:16;;;;;;;25.70;4.73;;;6.50;99.90;;;;;;4985807;28;19925;-94
2022/01/30 08:57:43;;;;;;;22.37;4.40;;;6.00;99.90;;;;;;4977635;28;20186;-95
2022/01/30 09:00:16;;;;;;;25.40;5.43;;;5.20;99.90;;;;;;4979362;28;20050;-96
2022/01/30 09:02:45;;;;;;;27.25;4.90;;;5.10;99.90;;;;;;4976944;28;20051;-96
2022/01/30 09:05:24;;;;;;;23.27;4.80;;;7.20;99.90;;;;;;4976505;28;20050;-96
2022/01/30 09:07:58;;;;;;;25.30;4.87;;;5.60;99.90;;;;;;4976806;28;20097;-96
2022/01/30 09:10:27;;;;;;;26.30;5.17;;;5.90;99.90;;;;;;4976443;28;20099;-96
2022/01/30 09:12:53;;;;;;;24.93;5.00;;;6.60;99.90;;;;;;5031588;23;20061;-95
2022/01/30 09:15:19;;;;;;;25.80;4.57;;;5.40;99.90;;;;;;5016066;28;20050;-95
2022/01/30 09:17:48;;;;;;;23.73;4.80;;;6.90;99.90;;;;;;5018611;28;20072;-95
2022/01/30 09:20:19;;;;;;;24.13;4.90;;;5.70;99.90;;;;;;5020549;28;20060;-94
2022/01/30 09:23:24;;;;;;;37.50;6.00;;;5.70;99.90;;;;;;4941295;29;20151;-95
2022/01/30 09:25:49;;;;;;;31.93;5.33;;;5.30;99.90;;;;;;5000475;28;20057;-96
2022/01/30 09:43:06;;;;;;;25.17;5.37;;;4.30;99.90;;;;;;5006429;23;20046;-93
2022/01/30 09:45:38;;;;;;;30.17;5.93;;;5.80;99.90;;;;;;4991409;28;20047;-94
2022/01/30 09:48:34;;;;;;;34.00;5.13;;;4.80;99.90;;;;;;4994462;28;20054;-96
2022/01/30 09:56:38;;;;;;;24.13;6.03;;;5.90;99.90;;;;;;5046528;23;20045;-95
2022/01/30 10:06:37;;;;;;;26.90;5.40;;;6.20;99.90;;;;;;5029064;23;20879;-89
2022/01/30 10:09:26;;;;;;;32.43;5.47;;;5.90;99.90;;;;;;4990979;28;20058;-90
2022/01/30 10:12:15;;;;;;;27.97;5.13;;;5.80;99.90;;;;;;4993389;28;20053;-91
2022/01/30 10:17:58;;;;;;;29.37;5.80;;;6.30;99.90;;;;;;5050279;23;20445;-90
2022/01/30 10:20:50;;;;;;;28.10;5.57;;;6.20;99.90;;;;;;4977248;28;20054;-92
2022/01/30 10:23:33;;;;;;;24.97;4.83;;;6.20;99.90;;;;;;4976217;28;20053;-92
2022/01/30 10:26:08;;;;;;;29.00;5.22;;;6.10;99.90;;;;;;4976785;28;20054;-92
2022/01/30 10:28:45;;;;;;;25.07;5.37;;;6.30;99.90;;;;;;4976826;28;20043;-91
2022/01/30 10:31:11;;;;;;;31.47;5.63;;;6.10;99.90;;;;;;4976399;28;20498;-91
2022/01/30 10:33:57;;;;;;;26.97;5.60;;;7.00;99.90;;;;;;4983157;28;20105;-90
2022/01/30 10:36:35;;;;;;;31.03;5.80;;;6.10;99.90;;;;;;4978048;28;20042;-90
2022/01/30 10:39:16;;;;;;;;;;;;;;;;;;;;;
2022/01/30 10:41:57;;;;;;;33.63;7.17;;;6.30;99.90;;;;;;4934876;29;20052;-90
2022/01/30 10:44:45;;;;;;;28.77;6.13;;;6.10;99.90;;;;;;4951344;23;20570;-90
2022/01/30 10:50:27;;;;;;;27.85;5.65;;;6.80;99.90;;;;;;4991561;28;20054;-90
2022/01/30 10:53:40;;;;;;;31.13;5.40;;;6.60;99.90;;;;;;4998368;23;20447;-91
2022/01/30 10:56:35;;;;;;;22.33;5.77;;;7.40;99.90;;;;;;4992723;28;20046;-90
2022/01/30 10:59:25;;;;;;;26.40;4.70;;;6.90;99.90;;;;;;4992290;28;20046;-94
2022/01/30 11:02:30;;;;;;;31.30;5.30;;;6.90;99.90;;;;;;5004935;23;20096;-93
2022/01/30 11:06:08;;;;;;;19.97;5.50;;;7.20;99.90;;;;;;4956107;28;20069;-93
2022/01/30 11:09:46;;;;;;;26.02;5.35;;;7.10;99.90;;;;;;4975968;28;20550;-92
2022/01/30 11:13:31;;;;;;;22.93;5.23;;;7.10;99.90;;;;;;4987492;28;20138;-91
2022/01/30 11:19:34;;;;;;;27.93;6.10;;;7.20;99.90;;;;;;4977213;28;20046;-92
2022/01/30 11:22:03;;;;;;;21.50;4.57;;;7.10;99.90;;;;;;4976278;28;20038;-88
2022/01/30 11:24:32;;;;;;;24.20;4.93;;;7.20;99.90;;;;;;4999168;23;20055;-90
2022/01/30 11:26:58;;;;;;;30.03;4.87;;;7.70;99.90;;;;;;4975347;28;20142;-91
2022/01/30 11:29:36;;;;;;;28.17;5.63;;;7.00;99.90;;;;;;4978729;28;20074;-90
2022/01/30 11:32:05;;;;;;;29.30;5.27;;;8.00;99.90;;;;;;4977921;28;20096;-87
2022/01/30 11:34:41;;;;;;;26.07;6.20;;;6.90;99.90;;;;;;4976822;28;20034;-91
2022/01/30 11:37:09;;;;;;;25.93;5.07;;;7.90;99.90;;;;;;4976191;28;20401;-89
2022/01/30 11:39:37;;;;;;;30.97;6.30;;;6.60;99.90;;;;;;4997815;23;20411;-88
2022/01/30 11:42:25;;;;;;;37.57;6.30;;;6.60;99.90;;;;;;4975750;28;20053;-88
2022/01/30 11:45:38;;;;;;;32.80;7.53;;;6.50;99.90;;;;;;4976404;28;20055;-89
2022/01/30 11:48:22;;;;;;;29.73;5.80;;;6.00;99.90;;;;;;4984780;28;20039;-88
2022/01/30 11:51:03;;;;;;;28.02;5.03;;;6.50;99.90;;;;;;4978572;28;20078;-90
2022/01/30 11:53:43;;;;;;;27.30;5.50;;;7.70;99.90;;;;;;4978648;28;20046;-89
2022/01/30 11:56:08;;;;;;;28.57;5.83;;;7.30;99.90;;;;;;4979308;28;20073;-90
2022/01/30 11:58:43;;;;;;;19.87;4.93;;;6.80;99.90;;;;;;4975212;28;20495;-90
2022/01/30 12:01:40;;;;;;;26.37;5.53;;;6.90;99.90;;;;;;4958854;28;20042;-91
2022/01/30 12:04:19;;;;;;;25.73;4.90;;;7.00;99.90;;;;;;4959697;28;20047;-90
2022/01/30 12:06:47;;;;;;;29.43;5.80;;;7.10;99.90;;;;;;4959501;28;20054;-88
2022/01/30 12:09:31;;;;;;;26.13;5.40;;;7.30;99.90;;;;;;4958773;28;20398;-89
2022/01/30 12:12:12;;;;;;;;;;;7.30;99.90;;;;;;4959766;28;20081;-89
2022/01/30 12:14:43;;;;;;;34.83;6.67;;;7.70;99.90;;;;;;4993613;23;19921;-89
2022/01/30 12:17:17;;;;;;;25.93;5.03;;;7.60;99.90;;;;;;4994802;28;20137;-89
2022/01/30 12:19:44;;;;;;;23.50;4.73;;;7.40;99.90;;;;;;4993880;28;20058;-90
2022/01/30 12:22:35;;;;;;;22.80;4.87;;;7.40;99.90;;;;;;4994196;28;20078;-89
2022/01/30 12:25:26;;;;;;;24.83;5.30;;;7.50;99.90;;;;;;5002120;28;20038;-87
2022/01/30 12:27:54;;;;;;;30.17;6.27;;;7.30;99.90;;;;;;4994451;28;20518;-89
2022/01/30 12:30:41;;;;;;;27.77;5.60;;;7.30;99.90;;;;;;4993438;28;20089;-88
2022/01/30 12:33:37;;;;;;;25.40;5.07;;;7.20;99.90;;;;;;4994382;28;20404;-86
2022/01/30 12:36:18;;;;;;;26.63;5.87;;;7.20;99.90;;;;;;4973886;28;20458;-87
2022/01/30 12:38:45;;;;;;;25.50;5.07;;;7.30;99.90;;;;;;4994671;28;20407;-86
2022/01/30 12:41:21;;;;;;;27.10;5.17;;;7.20;99.90;;;;;;4993775;28;20099;-86
2022/01/30 12:43:52;;;;;;;19.20;4.00;;;7.20;99.90;;;;;;4993053;28;20039;-87
2022/01/30 12:46:46;;;;;;;23.17;4.87;;;7.20;99.90;;;;;;4994208;28;20046;-87
2022/01/30 12:49:32;;;;;;;27.20;5.10;;;7.40;99.90;;;;;;4993725;28;20049;-86
2022/01/30 12:54:59;;;;;;;26.40;5.27;;;7.00;99.90;;;;;;4993235;28;20120;-86
2022/01/30 12:57:26;;;;;;;23.40;4.67;;;7.20;99.90;;;;;;4992733;28;20095;-87
2022/01/30 12:59:57;;;;;;;23.10;5.10;;;7.20;99.90;;;;;;4999294;28;20101;-87
2022/01/30 13:02:28;;;;;;;23.00;5.80;;;7.20;99.90;;;;;;4997377;28;20467;-87
2022/01/30 13:05:23;;;;;;;27.83;4.60;;;7.20;99.90;;;;;;4992717;28;20061;-87
2022/01/30 13:07:58;;;;;;;;;;;6.00;99.90;;;;;;4993575;28;20064;-87
2022/01/30 13:11:31;;;;;;;27.40;5.80;;;7.20;99.90;;;;;;4993377;28;19922;-87
2022/01/30 13:14:14;;;;;;;21.13;4.10;;;8.10;99.90;;;;;;4993463;28;20054;-87
2022/01/30 13:20:35;;;;;;;30.15;5.20;;;6.90;99.90;;;;;;4997894;23;20109;-87
2022/01/30 13:24:13;;;;;;;27.60;4.90;;;7.20;99.90;;;;;;4976700;28;20060;-87
2022/01/30 13:27:42;;;;;;;25.57;5.63;;;7.30;99.90;;;;;;4975731;28;20092;-87
2022/01/30 13:30:43;;;;;;;32.40;5.23;;;6.90;99.90;;;;;;4976658;28;20446;-87
2022/01/30 13:33:34;;;;;;;24.23;4.90;;;7.30;99.90;;;;;;4976582;28;20410;-87
2022/01/30 13:36:03;;;;;;;26.90;5.40;;;7.40;99.90;;;;;;4981028;28;20145;-88
2022/01/30 13:38:41;;;;;;;29.00;5.87;;;7.30;99.90;;;;;;4984983;28;20398;-88
2022/01/30 13:41:47;;;;;;;26.17;4.93;;;7.10;99.90;;;;;;4977413;28;20241;-88
2022/01/30 13:47:20;;;;;;;29.97;5.37;;;7.40;99.90;;;;;;4975962;28;20042;-87
2022/01/30 13:50:19;;;;;;;24.77;5.07;;;7.30;99.90;;;;;;4976166;28;20042;-87
2022/01/30 13:52:45;;;;;;;27.70;5.60;;;6.50;99.90;;;;;;4971478;28;20569;-87
2022/01/30 13:55:39;;;;;;;;;;;;;;;;;;;;;
2022/01/30 13:58:57;;;;;;;25.23;5.23;;;7.10;99.90;;;;;;4932709;28;20093;-87
2022/01/30 14:01:40;;;;;;;24.87;5.37;;;8.30;99.90;;;;;;4974481;28;20065;-87
2022/01/30 14:04:15;;;;;;;21.57;4.70;;;7.10;99.90;;;;;;4976070;28;20461;-87
2022/01/30 14:06:46;;;;;;;21.40;5.53;;;8.30;99.90;;;;;;4975214;28;20042;-88
2022/01/30 14:09:25;;;;;;;24.73;4.80;;;7.00;99.90;;;;;;4984907;23;20414;-89
2022/01/30 14:12:18;;;;;;;21.67;5.80;;;6.90;99.90;;;;;;4991912;28;20050;-89
2022/01/30 14:15:18;;;;;;;26.00;4.90;;;7.00;99.90;;;;;;5002711;28;20104;-87
2022/01/30 14:17:44;;;;;;;22.43;5.13;;;7.10;99.90;;;;;;4991954;28;20042;-85
2022/01/30 14:20:17;;;;;;;27.87;5.10;;;6.20;99.90;;;;;;4991843;28;20731;-89
2022/01/30 14:23:21;;;;;;;24.17;5.00;;;6.80;99.90;;;;;;4977606;28;20348;-89
2022/01/30 14:25:59;;;;;;;25.23;5.13;;;7.70;99.90;;;;;;4972075;28;20557;-89
2022/01/30 14:28:30;;;;;;;26.10;5.17;;;6.80;99.90;;;;;;4971243;28;20082;-90
2022/01/30 14:31:17;;;;;;;21.73;4.90;;;7.00;99.90;;;;;;4972821;28;20034;-88
2022/01/30 14:33:42;;;;;;;21.20;4.40;;;6.90;99.90;;;;;;4972672;28;20061;-88
2022/01/30 14:36:08;;;;;;;19.60;3.50;;;7.00;99.90;;;;;;4971560;28;20415;-86
2022/01/30 14:38:43;;;;;;;19.77;3.83;;;6.40;99.90;;;;;;4972726;28;20107;-89
2022/01/30 14:41:10;;;;;;;28.33;5.20;;;7.20;99.90;;;;;;4972989;28;20043;-88
2022/01/30 14:43:39;;;;;;;22.07;4.17;;;7.60;99.90;;;;;;4971609;28;20082;-88
2022/01/30 14:46:08;;;;;;;17.93;4.80;;;6.60;99.90;;;;;;4972731;28;20046;-87
2022/01/30 14:48:34;;;;;;;24.93;4.20;;;6.60;99.90;;;;;;4974572;28;20141;-86
2022/01/30 14:51:01;;;;;;;23.93;4.83;;;6.80;99.90;;;;;;4988466;28;20066;-88
2022/01/30 14:53:32;;;;;;;22.17;4.63;;;6.00;99.90;;;;;;4979991;28;20038;-89
2022/01/30 14:56:19;;;;;;;24.30;4.57;;;6.10;99.90;;;;;;4977130;28;20042;-90
2022/01/30 14:58:44;;;;;;;21.33;4.13;;;6.00;99.90;;;;;;4974476;28;20066;-89
2022/01/30 15:01:16;;;;;;;26.40;4.63;;;5.80;99.90;;;;;;4975290;28;20043;-90
2022/01/30 15:03:47;;;;;;;26.07;4.33;;;7.10;99.90;;;;;;4972593;28;20055;-90
2022/01/30 15:08:51;;;;;;;22.48;4.78;;;6.10;99.90;;;;;;5037090;23;20085;-90
2022/01/30 15:11:32;;;;;;;24.83;4.37;;;7.20;99.90;;;;;;4978419;28;20042;-90
2022/01/30 15:14:10;;;;;;;21.67;4.23;;;5.70;99.90;;;;;;4979479;28;20121;-90
2022/01/30 15:16:50;;;;;;;23.17;3.97;;;6.00;99.90;;;;;;4993353;28;20478;-89
2022/01/30 15:19:22;;;;;;;19.70;4.10;;;5.70;99.90;;;;;;4997811;28;20548;-89
2022/01/30 15:22:02;;;;;;;28.43;4.90;;;6.30;99.90;;;;;;4998741;28;20556;-90
2022/01/30 15:24:51;;;;;;;27.33;5.20;;;5.40;99.90;;;;;;4998823;28;20560;-89
2022/01/30 15:27:31;;;;;;;23.30;5.00;;;6.30;99.90;;;;;;5010684;28;20073;-89
2022/01/30 15:30:18;;;;;;;25.40;5.30;;;6.40;99.90;;;;;;4977595;28;20054;-88
2022/01/30 15:33:01;;;;;;;23.00;4.70;;;6.10;99.90;;;;;;4977955;28;20513;-88
2022/01/30 15:35:43;;;;;;;27.43;4.87;;;5.70;99.90;;;;;;4979131;28;20379;-88
2022/01/30 15:38:30;;;;;;;25.40;5.50;;;5.40;99.90;;;;;;4979360;28;20355;-88
2022/01/30 15:41:14;;;;;;;28.03;4.77;;;4.70;99.90;;;;;;4978691;28;20045;-88
2022/01/30 15:43:54;;;;;;;23.05;5.45;;;5.50;99.90;;;;;;4979069;28;20165;-89